Home > Products > Valid Products > TAF

000
FTUS42 KFFC 171100
TAFPDK
TAF
KPDK 171126Z 1712/1812 08010KT P6SM SCT250
     FM171600 10010G18KT P6SM SCT040 BKN250
     FM180200 09007KT P6SM BKN035
     FM181000 07007KT P6SM BKN025=



000
FTUS42 KFFC 171100
TAFATL
TAF
KATL 171126Z 1712/1818 08012KT P6SM SCT040 SCT200
     FM171500 10012G20KT P6SM SCT040 BKN200
     FM180200 10010KT P6SM BKN035
     FM181000 07010KT P6SM BKN025
     FM181500 07012G18KT P6SM -SHRA OVC020=



000
FTUS42 KFFC 171100
TAFRYY
TAF
KRYY 171126Z 1712/1812 09010KT P6SM SCT250
     FM171500 10010G18KT P6SM BKN040 BKN250
     FM180200 10006KT P6SM BKN035=



000
FTUS42 KFFC 171100
TAFFTY
TAF
KFTY 171126Z 1712/1812 08007KT P6SM SCT040
     FM171500 10010G18KT P6SM SCT040 BKN250
     FM180200 09007KT P6SM BKN035
     FM181000 07007KT P6SM BKN025=



000
FTUS42 KFFC 171100
TAFAHN
TAF
KAHN 171126Z 1712/1812 06009KT P6SM SCT250
     FM171600 09011G20KT P6SM SCT040 BKN250
     FM180200 07007KT P6SM BKN035
     FM181000 06009KT P6SM BKN015=



000
FTUS42 KFFC 171100
TAFMCN
TAF
KMCN 171126Z 1712/1812 08008KT P6SM SCT035 BKN250
     FM171500 08010G18KT P6SM SCT035 BKN250
     FM172200 08010G18KT P6SM BKN040
     FM180900 06009KT P6SM BKN025
     FM181100 05008KT P6SM OVC009=



000
FTUS42 KFFC 171100
TAFCSG
TAF
KCSG 171126Z 1712/1812 10010KT P6SM BKN040
     FM171600 10010G20KT P6SM BKN040 BKN250
     FM172000 10009G16KT P6SM BKN040
     FM180200 09009KT P6SM BKN035
     FM181100 08010KT P6SM -RA OVC015=



000
FTUS42 KFFC 170900 AAB
TAFATL
TAF AMD
KATL 170957Z 1710/1812 10010KT P6SM SCT250
     FM171200 08012KT P6SM SCT250
     FM171600 10013G20KT P6SM SCT040 BKN250
     FM180200 10010KT P6SM BKN035
     FM180600 07010KT P6SM BKN030=



000
FTUS42 KFFC 170900 AAA
TAFMCN
TAF AMD
KMCN 170930Z 1710/1806 08006KT P6SM FEW040
     FM171200 06010KT P6SM SCT035 BKN250
     FM171500 08010G20KT P6SM SCT035 BKN250
     FM172000 07010G18KT P6SM BKN040
     FM180000 07009KT P6SM BKN035=



000
FTUS42 KFFC 170900 AAA
TAFCSG
TAF AMD
KCSG 170929Z 1709/1806 10008KT P6SM BKN040
     FM171300 08010KT P6SM BKN040 BKN250
     FM171600 10010G20KT P6SM SCT040 BKN250
     FM172000 10009G16KT P6SM BKN040
     FM180000 09009KT P6SM BKN035=



000
FTUS42 KFFC 170700 AAA
TAFATL
TAF AMD
KATL 170756Z 1708/1812 10010KT P6SM SCT250
     FM171200 08012KT P6SM SCT250
     FM171600 10014G22KT P6SM SCT040 BKN250
     FM180200 10010KT P6SM BKN035
     FM180600 07010KT P6SM BKN030=



000
FTUS42 KFFC 170500
TAFPDK
TAF
KPDK 170535Z 1706/1806 11006KT P6SM SCT250
     FM171200 08010KT P6SM SCT250
     FM171600 10010G20KT P6SM SCT040 BKN250
     FM180000 09007KT P6SM BKN035=



000
FTUS42 KFFC 170500
TAFAHN
TAF
KAHN 170535Z 1706/1806 10006KT P6SM SCT250
     FM171200 08010KT P6SM SCT250
     FM171600 09010G20KT P6SM SCT040 BKN250
     FM180000 07007KT P6SM BKN035=



000
FTUS42 KFFC 170500
TAFFTY
TAF
KFTY 170535Z 1706/1806 09006KT P6SM SCT250
     FM171200 08010KT P6SM SCT250
     FM171600 10010G20KT P6SM SCT040 BKN250
     FM180000 09007KT P6SM BKN035=



000
FTUS42 KFFC 170500
TAFCSG
TAF
KCSG 170535Z 1706/1806 10006KT P6SM SKC
     FM171300 08010KT P6SM SCT025 BKN250
     FM171600 10010G20KT P6SM SCT040 BKN250
     FM172000 10009G16KT P6SM BKN040
     FM180000 09009KT P6SM BKN035=



000
FTUS42 KFFC 170500
TAFMCN
TAF
KMCN 170535Z 1706/1806 09006KT P6SM SKC
     FM171200 06010KT P6SM SCT020 BKN250
     FM171500 08010G20KT P6SM SCT035 BKN250
     FM172000 07010G18KT P6SM BKN040
     FM180000 07009KT P6SM BKN035=



000
FTUS42 KFFC 170500
TAFRYY
TAF
KRYY 170535Z 1706/1806 12008KT P6SM SCT250
     FM171200 08010KT P6SM SCT250
     FM171600 10010G20KT P6SM BKN040 BKN250
     FM180000 09007KT P6SM BKN035
      AMD NOT SKED TIL 171200=



000
FTUS42 KFFC 170500
TAFATL
TAF
KATL 170535Z 1706/1812 11009KT P6SM BKN250
     FM171200 08012KT P6SM SCT250
     FM171600 10014G24KT P6SM SCT040 BKN250
     FM180000 10010G16KT P6SM BKN035
     FM180500 06012KT P6SM BKN030=



000
FTUS42 KFFC 170300 AAA
TAFMCN
TAF AMD
KMCN 170336Z 1703/1724 08006KT P6SM SKC
     FM171200 08010KT P6SM SCT023 BKN250
     FM171500 10010G20KT P6SM SCT035 BKN250
     FM172000 08010G18KT P6SM BKN040=



000
FTUS42 KFFC 170300 AAA
TAFAHN
TAF AMD
KAHN 170336Z 1703/1724 10006KT P6SM SKC
     FM171200 08010KT P6SM SCT250
     FM171600 10010G20KT P6SM SCT040 BKN250=



000
FTUS42 KFFC 170300 AAA
TAFCSG
TAF AMD
KCSG 170336Z 1703/1724 10006KT P6SM SKC
     FM171300 09010KT P6SM SCT025 BKN250
     FM171600 10010G20KT P6SM SCT040 BKN250
     FM172000 10009G16KT P6SM BKN040=



000
FTUS42 KFFC 170300 AAB
TAFATL
TAF AMD
KATL 170336Z 1703/1806 11009KT P6SM SKC
     FM171200 08012KT P6SM SCT250
     FM171600 10014G24KT P6SM SCT040 BKN250
     FM180000 10010G16KT P6SM BKN035=



000
FTUS42 KFFC 170300 AAA
TAFFTY
TAF AMD
KFTY 170336Z 1703/1724 10006KT P6SM SKC
     FM171200 08010KT P6SM SCT250
     FM171600 10010G20KT P6SM SCT040 BKN250=



000
FTUS42 KFFC 170300 AAA
TAFPDK
TAF AMD
KPDK 170336Z 1703/1724 11006KT P6SM SKC
     FM171200 08010KT P6SM SCT250
     FM171600 10010G20KT P6SM SCT040 BKN250=



000
FTUS42 KFFC 170200 AAA
TAFATL
TAF AMD
KATL 170215Z 1702/1806 11008KT P6SM SKC
     FM171200 08012KT P6SM SCT250
     FM171600 10014G24KT P6SM BKN040 BKN250
     FM180000 10010G16KT P6SM BKN035=



000
FTUS42 KFFC 162300
TAFPDK
TAF
KPDK 162320Z 1700/1724 11006KT P6SM SKC
     FM171200 08010KT P6SM SCT250
     FM171600 10010G20KT P6SM BKN040 BKN250=



000
FTUS42 KFFC 162300
TAFAHN
TAF
KAHN 162320Z 1700/1724 10007KT P6SM SKC
     FM171200 08010KT P6SM SCT250
     FM171600 10010G20KT P6SM BKN040 BKN250=



000
FTUS42 KFFC 162300
TAFCSG
TAF
KCSG 162320Z 1700/1724 13008KT P6SM SKC
     FM171300 09010KT P6SM BKN025 BKN250
     FM171600 10010G20KT P6SM BKN040 BKN250=



000
FTUS42 KFFC 162300
TAFMCN
TAF
KMCN 162320Z 1700/1724 08008KT P6SM SKC
     FM171200 08010KT P6SM BKN023 BKN250
     FM171600 10010G20KT P6SM BKN035 BKN250=



000
FTUS42 KFFC 162300
TAFFTY
TAF
KFTY 162320Z 1700/1724 10006KT P6SM SKC
     FM171200 08010KT P6SM SCT250
     FM171600 10010G20KT P6SM BKN040 BKN250=



000
FTUS42 KFFC 162300
TAFRYY
TAF
KRYY 162320Z 1700/1724 12008KT P6SM SKC
     FM171200 08010KT P6SM SCT250
     FM171600 10010G20KT P6SM BKN040 BKN250
      AMD NOT SKED 1704/1712=



000
FTUS42 KFFC 162300
TAFATL
TAF
KATL 162320Z 1700/1806 11008KT P6SM SKC
     FM171200 08012KT P6SM SCT250
     FM171600 10014G24KT P6SM BKN040 BKN250
     FM180000 10010G16KT P6SM BKN035=



000
FTUS42 KFFC 162100 AAA
TAFMCN
TAF AMD
KMCN 162159Z 1622/1718 08010KT P6SM SKC
     FM171200 08010KT P6SM BKN023 BKN250
     FM171600 10010G20KT P6SM BKN035 BKN250=



000
FTUS42 KFFC 162100 AAA
TAFAHN
TAF AMD
KAHN 162159Z 1622/1718 11007KT P6SM SKC
     FM171200 08010KT P6SM SCT250
     FM171600 10010G20KT P6SM BKN040 BKN250=



000
FTUS42 KFFC 162100 AAB
TAFATL
TAF AMD
KATL 162159Z 1622/1724 10009KT P6SM SKC
     FM171200 08012KT P6SM SCT250
     FM171600 10014G25KT P6SM BKN040 BKN250=



000
FTUS42 KFFC 162100 AAA
TAFFTY
TAF AMD
KFTY 162159Z 1622/1718 10007KT P6SM SKC
     FM171200 08010KT P6SM SCT250
     FM171600 10010G20KT P6SM BKN040 BKN250=



000
FTUS42 KFFC 162100 AAA
TAFPDK
TAF AMD
KPDK 162159Z 1622/1718 11009KT P6SM SKC
     FM171200 08010KT P6SM SCT250
     FM171600 10010G20KT P6SM BKN040 BKN250=



000
FTUS42 KFFC 162100 AAA
TAFCSG
TAF AMD
KCSG 162159Z 1622/1718 12009KT P6SM SKC
     FM171300 08010KT P6SM BKN025 BKN250
     FM171600 10010G20KT P6SM BKN040 BKN250=



000
FTUS42 KFFC 162100 AAA
TAFRYY
TAF AMD
KRYY 162159Z 1622/1718 12009KT P6SM SKC
     FM171200 08010KT P6SM SCT250
     FM171600 10010G20KT P6SM BKN040 BKN250=



000
FTUS42 KFFC 161900 AAA
TAFATL
TAF AMD
KATL 161952Z 1620/1724 09008G16KT P6SM SKC
     FM170000 08010KT P6SM SKC
     FM171200 08014KT P6SM SCT250
     FM171600 10012G25KT P6SM BKN035 BKN250=



000
FTUS42 KFFC 161700
TAFAHN
TAF
KAHN 161735Z 1618/1718 08010G18KT P6SM SKC
     FM170000 08010KT P6SM SKC
     FM171200 08011KT P6SM SCT250
     FM171400 10010G20KT P6SM BKN035 BKN250=



000
FTUS42 KFFC 161700
TAFMCN
TAF
KMCN 161735Z 1618/1718 08012G20KT P6SM SKC
     FM170000 08007KT P6SM SKC
     FM171200 08011KT P6SM SCT030 BKN250
     FM171400 10010G20KT P6SM BKN035 BKN250=



000
FTUS42 KFFC 161700
TAFPDK
TAF
KPDK 161735Z 1618/1718 10008G16KT P6SM SKC
     FM170000 07006KT P6SM SKC
     FM171200 08011KT P6SM SCT250
     FM171600 10010G20KT P6SM BKN035 BKN250=



000
FTUS42 KFFC 161700
TAFATL
TAF
KATL 161735Z 1618/1724 09010G18KT P6SM SKC
     FM170000 08010KT P6SM SKC
     FM171200 08014KT P6SM SCT250
     FM171600 10012G25KT P6SM BKN035 BKN250=



000
FTUS42 KFFC 161700
TAFCSG
TAF
KCSG 161735Z 1618/1718 09010KT P6SM SKC
     FM170000 10005KT P6SM SKC
     FM171200 08011KT P6SM SCT030 BKN250
     FM171400 10010G20KT P6SM BKN035 BKN250=



000
FTUS42 KFFC 161700
TAFRYY
TAF
KRYY 161735Z 1618/1718 11010G18KT P6SM SKC
     FM170000 10006KT P6SM SKC
     FM171200 08011KT P6SM SCT250
     FM171600 10010G20KT P6SM BKN035 BKN250=



000
FTUS42 KFFC 161700
TAFFTY
TAF
KFTY 161735Z 1618/1718 08008G16KT P6SM SKC
     FM170000 07006KT P6SM SKC
     FM171200 08011KT P6SM SCT250
     FM171600 10010G20KT P6SM BKN035 BKN250=



000
FTUS42 KFFC 161500 AAB
TAFATL
TAF AMD
KATL 161559Z 1616/1718 09012G22KT P6SM SKC
     FM170000 10010KT P6SM SKC
     FM171200 08013KT P6SM SCT250=



000
FTUS42 KFFC 161400 AAA
TAFCSG
TAF AMD
KCSG 161406Z 1614/1712 09012G20KT P6SM SKC
     FM170000 10006KT P6SM SCT250=



000
FTUS42 KFFC 161400 AAA
TAFMCN
TAF AMD
KMCN 161405Z 1614/1712 08012G20KT P6SM SKC
     FM170000 08006KT P6SM SCT250=



000
FTUS42 KFFC 161400 AAA
TAFRYY
TAF AMD
KRYY 161403Z 1614/1712 08010G18KT P6SM SKC
     FM170000 10006KT P6SM SCT250=



000
FTUS42 KFFC 161400 AAA
TAFPDK
TAF AMD
KPDK 161402Z 1614/1712 05010G18KT P6SM SKC
     FM170000 10007KT P6SM SCT250=



000
FTUS42 KFFC 161300 AAA
TAFATL
TAF AMD
KATL 161359Z 1614/1718 09012G22KT P6SM SKC
     FM170000 10010KT P6SM SKC
     FM171200 08013KT P6SM SCT250=



000
FTUS42 KFFC 161100
TAFPDK
TAF
KPDK 161120Z 1612/1712 05006KT P6SM SKC
     FM161500 09009G16KT P6SM SCT250
     FM170000 10007KT P6SM SCT250=



000
FTUS42 KFFC 161100
TAFRYY
TAF
KRYY 161120Z 1612/1712 05006KT P6SM SKC
     FM161500 09009G16KT P6SM SCT250
     FM170000 10006KT P6SM SCT250=



000
FTUS42 KFFC 161100
TAFMCN
TAF
KMCN 161120Z 1612/1712 04009KT P6SM SKC
     FM161500 06010G18KT P6SM SCT250
     FM170000 08006KT P6SM SCT250=



000
FTUS42 KFFC 161100
TAFAHN
TAF
KAHN 161120Z 1612/1712 08009KT P6SM SKC
     FM161500 08009G16KT P6SM SCT250
     FM170000 08005KT P6SM SCT250=



000
FTUS42 KFFC 161100
TAFFTY
TAF
KFTY 161120Z 1612/1712 07007KT P6SM SKC
     FM161500 09009G16KT P6SM SCT250
     FM170000 10006KT P6SM SCT250=



000
FTUS42 KFFC 161100
TAFATL
TAF
KATL 161120Z 1612/1718 04008KT P6SM SKC
     FM161500 10011G18KT P6SM SCT250
     FM170000 10010KT P6SM SKC
     FM171200 08013KT P6SM SCT250=



000
FTUS42 KFFC 161100
TAFCSG
TAF
KCSG 161120Z 1612/1712 06008KT P6SM SKC
     FM161500 08009G16KT P6SM SCT250
     FM170000 10006KT P6SM SCT250=



000
FTUS42 KFFC 160900 AAB
TAFATL
TAF AMD
KATL 160959Z 1610/1712 02007KT P6SM SKC
     FM161200 06010KT P6SM SKC
     FM161500 10011G18KT P6SM SCT250
     FM170000 10009KT P6SM SCT250=



000
FTUS42 KFFC 160700 AAA
TAFATL
TAF AMD
KATL 160759Z 1608/1712 34007KT P6SM SKC
     FM160900 02009KT P6SM SKC
     FM161200 06010KT P6SM SKC
     FM161500 10011G18KT P6SM SCT250
     FM170000 10009KT P6SM SCT250=



000
FTUS42 KFFC 160500
TAFCSG
TAF
KCSG 160528Z 1606/1706 34006KT P6SM SCT250
     FM161000 03007KT P6SM SKC
     FM161200 08009KT P6SM SKC
     FM161500 08009G16KT P6SM SCT250
     FM170000 10007KT P6SM SCT250=



000
FTUS42 KFFC 160500
TAFPDK
TAF
KPDK 160528Z 1606/1706 34008KT P6SM SKC
     FM161000 02004KT P6SM SKC
     FM161200 05006KT P6SM SKC
     FM161500 10009G16KT P6SM SCT250
     FM170000 10007KT P6SM SCT250=



000
FTUS42 KFFC 160500
TAFATL
TAF
KATL 160528Z 1606/1712 34009KT P6SM SKC
     FM160900 02009KT P6SM SKC
     FM161200 06010KT P6SM SKC
     FM161500 10011G18KT P6SM SCT250
     FM170000 10009KT P6SM SCT250=



000
FTUS42 KFFC 160500
TAFMCN
TAF
KMCN 160528Z 1606/1706 33006KT P6SM SCT250
     FM161000 02006KT P6SM SKC
     FM161200 06009KT P6SM SKC
     FM161500 08009G16KT P6SM SCT250
     FM170000 08007KT P6SM SCT250=



000
FTUS42 KFFC 160500
TAFFTY
TAF
KFTY 160528Z 1606/1706 34006KT P6SM SKC
     FM161000 02004KT P6SM SKC
     FM161200 07007KT P6SM SKC
     FM161500 10009G16KT P6SM SCT250
     FM170000 10007KT P6SM SCT250=



000
FTUS42 KFFC 160500
TAFRYY
TAF
KRYY 160528Z 1606/1706 35008KT P6SM SKC
     FM161000 02004KT P6SM SKC
     FM161200 05006KT P6SM SKC
     FM161500 10009G16KT P6SM SCT250
     FM170000 10007KT P6SM SCT250
      AMD NOT SKED TIL 161200=



000
FTUS42 KFFC 160500
TAFAHN
TAF
KAHN 160528Z 1606/1706 33006KT P6SM SKC
     FM161000 02004KT P6SM SKC
     FM161200 06009KT P6SM SKC
     FM161500 10009G16KT P6SM SCT250
     FM170000 10007KT P6SM SCT250=



000
FTUS42 KFFC 160300 AAB
TAFATL
TAF AMD
KATL 160343Z 1604/1706 34010G20KT P6SM SKC
     FM160900 02009KT P6SM SKC
     FM161100 08010KT P6SM SKC
     FM161500 10012G20KT P6SM SCT250
     FM170000 09009G17KT P6SM SCT250=



000
FTUS42 KFFC 160300 AAB
TAFRYY
TAF AMD
KRYY 160343Z 1604/1624 35007KT P6SM SKC
     FM160900 03008KT P6SM SKC
     FM161500 10009KT P6SM SCT250
      AMD NOT SKED 1604/1612=



000
FTUS42 KFFC 160300 AAB
TAFPDK
TAF AMD
KPDK 160343Z 1604/1624 34010G17KT P6SM SKC
     FM160900 02008KT P6SM SKC
     FM161500 09010G17KT P6SM SCT250=



000
FTUS42 KFFC 160300 AAB
TAFAHN
TAF AMD
KAHN 160343Z 1604/1624 33007KT P6SM SKC
     FM160700 03008KT P6SM SKC
     FM161400 08010G18KT P6SM SCT250=



000
FTUS42 KFFC 160300 AAB
TAFCSG
TAF AMD
KCSG 160343Z 1604/1624 35008KT P6SM SCT250
     FM160800 01008KT P6SM SCT250
     FM161400 10011G19KT P6SM SCT250=



000
FTUS42 KFFC 160300 AAB
TAFMCN
TAF AMD
KMCN 160343Z 1604/1624 34009KT P6SM SCT250
     FM160900 03008KT P6SM SCT250
     FM161400 08012G20KT P6SM SCT250=



000
FTUS42 KFFC 160300 AAB
TAFFTY
TAF AMD
KFTY 160343Z 1604/1624 35007KT P6SM SKC
     FM160900 03006KT P6SM SKC
     FM161500 09009G16KT P6SM SCT250=



000
FTUS42 KFFC 160200 AAA
TAFRYY
TAF AMD
KRYY 160205Z 1602/1624 35008KT P6SM SKC
     FM160900 03008KT P6SM SKC
     FM161500 10009KT P6SM SCT250
      AMD NOT SKED 1604/1612=



000
FTUS42 KFFC 160200 AAA
TAFAHN
TAF AMD
KAHN 160205Z 1602/1624 33008G15KT P6SM SKC
     FM160700 03008KT P6SM SKC
     FM161400 08010G18KT P6SM SCT250=



000
FTUS42 KFFC 160200 AAA
TAFMCN
TAF AMD
KMCN 160205Z 1602/1624 34010G18KT P6SM SCT250
     FM160900 03008KT P6SM SCT250
     FM161400 08012G20KT P6SM SCT250=



000
FTUS42 KFFC 160200 AAA
TAFPDK
TAF AMD
KPDK 160205Z 1602/1624 34010G18KT P6SM SKC
     FM160900 02008KT P6SM SKC
     FM161500 09010G17KT P6SM SCT250=



000
FTUS42 KFFC 160200 AAA
TAFATL
TAF AMD
KATL 160205Z 1602/1706 34012G22KT P6SM SKC
     FM160900 02009KT P6SM SKC
     FM161100 08010KT P6SM SKC
     FM161500 10012G20KT P6SM SCT250
     FM170000 09009G17KT P6SM SCT250=



000
FTUS42 KFFC 160200 AAA
TAFCSG
TAF AMD
KCSG 160205Z 1602/1624 35009KT P6SM SCT250
     FM160800 01008KT P6SM SCT250
     FM161400 10011G19KT P6SM SCT250=



000
FTUS42 KFFC 160200 AAA
TAFFTY
TAF AMD
KFTY 160205Z 1602/1624 35008KT P6SM SKC
     FM160900 03006KT P6SM SKC
     FM161500 09009G16KT P6SM SCT250=



000
FTUS42 KFFC 152300 RRA
TAFCSG
TAF
KCSG 152342Z 1600/1624 32012G24KT P6SM SCT040 SCT250
     FM160230 34009G17KT P6SM SCT250
     FM160800 01008KT P6SM SCT250
     FM161400 10011G19KT P6SM SCT250=



000
FTUS42 KFFC 152300 RRA
TAFRYY
TAF
KRYY 152342Z 1600/1624 34012G23KT P6SM SCT040
     FM160200 35009G18KT P6SM FEW040
     FM160900 03008KT P6SM SKC
     FM161500 10009KT P6SM SCT250
      AMD NOT SKED 1604/1612=



000
FTUS42 KFFC 152300 RRA
TAFAHN
TAF
KAHN 152342Z 1600/1624 29013G25KT P6SM FEW040
     FM160200 33010KT P6SM SKC
     FM160700 03008KT P6SM SKC
     FM161400 08010G18KT P6SM SCT250=



000
FTUS42 KFFC 152300 RRA
TAFATL
TAF
KATL 152342Z 1600/1706 32021G31KT P6SM FEW040
     FM160200 34015G26KT P6SM SKC
     FM160900 02009KT P6SM SKC
     FM161100 08010KT P6SM SKC
     FM161500 10012G20KT P6SM SCT250
     FM170000 09009G17KT P6SM SCT250=



000
FTUS42 KFFC 152300 RRA
TAFFTY
TAF
KFTY 152342Z 1600/1624 32011G26KT P6SM FEW040
     FM160200 34009G18KT P6SM SKC
     FM160900 03007KT P6SM SKC
     FM161500 09009G16KT P6SM SCT250=



000
FTUS42 KFFC 152300 RRA
TAFMCN
TAF
KMCN 152342Z 1600/1624 32014G27KT P6SM SCT040 SCT250
     FM160230 34010G17KT P6SM SCT250
     FM160900 03008KT P6SM SCT250
     FM161400 08012G20KT P6SM SCT250=



000
FTUS42 KFFC 152300 RRA
TAFPDK
TAF
KPDK 152342Z 1600/1624 32014G27KT P6SM SCT040
     FM160200 34011G20KT P6SM SKC
     FM160900 02008KT P6SM SKC
     FM161500 09010G17KT P6SM SCT250=



000
FTUS42 KFFC 152100 AAB
TAFRYY
TAF AMD
KRYY 152153Z 1522/1618 33014G28KT P6SM BKN035
     FM160000 32018G30KT P6SM SCT035
     FM160200 34010G17KT P6SM SKC
     FM160700 01005KT P6SM SKC
     FM161100 08010KT P6SM SKC
     FM161500 10012G20KT P6SM SCT250=



000
FTUS42 KFFC 152100 AAB
TAFATL
TAF AMD
KATL 152152Z 1522/1624 32023G35KT P6SM SCT030
      TEMPO 1522/1523 BKN030
     FM160200 34015G27KT P6SM SKC
     FM160700 01008KT P6SM SKC
     FM161100 08010KT P6SM SKC
     FM161500 10012G20KT P6SM SCT250=



000
FTUS42 KFFC 152100 AAB
TAFFTY
TAF AMD
KFTY 152152Z 1522/1618 32015G28KT P6SM SCT035
      TEMPO 1522/1523 BKN035
     FM160200 34010G17KT P6SM SKC
     FM160700 01005KT P6SM SKC
     FM161100 08010KT P6SM SKC
     FM161500 10012G20KT P6SM SCT250=



000
FTUS42 KFFC 152100 AAB
TAFPDK
TAF AMD
KPDK 152152Z 1522/1618 32018G30KT P6SM SCT035
      TEMPO 1522/1523 BKN035
     FM160200 34010G17KT P6SM SKC
     FM160700 01005KT P6SM SKC
     FM161100 08010KT P6SM SKC
     FM161500 10012G20KT P6SM SCT250=



000
FTUS42 KFFC 152000 AAA
TAFMCN
TAF AMD
KMCN 152002Z 1520/1618 32017G30KT P6SM BKN025
     FM152200 32018G30KT P6SM BKN035
     FM160200 34010G17KT P6SM SKC
     FM160700 01005KT P6SM SKC
     FM161100 08010KT P6SM SKC
     FM161500 10012G20KT P6SM SCT250=



000
FTUS42 KFFC 152000 AAA
TAFCSG
TAF AMD
KCSG 152002Z 1520/1618 34016G29KT P6SM BKN030
     FM152300 32015G27KT P6SM SCT030
     FM160200 34010G17KT P6SM SKC
     FM160700 01005KT P6SM SKC
     FM161100 08010KT P6SM SKC
     FM161500 10012G20KT P6SM SCT250=



000
FTUS42 KFFC 152000 AAA
TAFAHN
TAF AMD
KAHN 152000Z 1520/1618 29013G25KT P6SM SCT035
      TEMPO 1520/1522 BKN035
     FM160200 34010G17KT P6SM SKC
     FM160700 01005KT P6SM SKC
     FM161100 08010KT P6SM SKC
     FM161500 10012G20KT P6SM SCT250=



000
FTUS42 KFFC 152000 AAA
TAFRYY
TAF AMD
KRYY 152000Z 1520/1618 32016G28KT P6SM BKN030
     FM160000 32018G30KT P6SM SCT030
     FM160200 34010G17KT P6SM SKC
     FM160700 01005KT P6SM SKC
     FM161100 08010KT P6SM SKC
     FM161500 10012G20KT P6SM SCT250=



000
FTUS42 KFFC 152000 AAA
TAFPDK
TAF AMD
KPDK 152000Z 1520/1618 32018G30KT P6SM SCT035
      TEMPO 1520/1522 BKN035
     FM160200 34010G17KT P6SM SKC
     FM160700 01005KT P6SM SKC
     FM161100 08010KT P6SM SKC
     FM161500 10012G20KT P6SM SCT250=



000
FTUS42 KFFC 152000 AAA
TAFFTY
TAF AMD
KFTY 152000Z 1520/1618 32016G27KT P6SM BKN030
     FM160000 32018G30KT P6SM SCT030
     FM160200 34010G17KT P6SM SKC
     FM160700 01005KT P6SM SKC
     FM161100 08010KT P6SM SKC
     FM161500 10012G20KT P6SM SCT250=



000
FTUS42 KFFC 151900 AAA
TAFATL
TAF AMD
KATL 151941Z 1520/1624 32020G33KT P6SM BKN025
     FM152200 32023G35KT P6SM SCT030
     FM160200 34015G27KT P6SM SKC
     FM160700 01008KT P6SM SKC
     FM161100 08010KT P6SM SKC
     FM161500 10012G20KT P6SM SCT250=



000
FTUS42 KFFC 151700
TAFMCN
TAF
KMCN 151739Z 1518/1618 32013G25KT P6SM BKN012 BKN025
     FM152000 32018G30KT P6SM SCT030
     FM160200 34010G17KT P6SM SKC
     FM160700 01005KT P6SM SKC
     FM161100 08010KT P6SM SKC
     FM161500 10012G20KT P6SM SCT250=



000
FTUS42 KFFC 151700
TAFATL
TAF
KATL 151739Z 1518/1624 32020G33KT P6SM BKN012 BKN025
     FM152000 32023G35KT P6SM SCT030
     FM160200 34015G27KT P6SM SKC
     FM160700 01008KT P6SM SKC
     FM161100 08010KT P6SM SKC
     FM161500 10012G20KT P6SM SCT250=



000
FTUS42 KFFC 151700
TAFPDK
TAF
KPDK 151739Z 1518/1618 32018G28KT P6SM BKN012 BKN025
     FM152000 32018G30KT P6SM SCT030
     FM160200 34010G17KT P6SM SKC
     FM160700 01005KT P6SM SKC
     FM161100 08010KT P6SM SKC
     FM161500 10012G20KT P6SM SCT250=



000
FTUS42 KFFC 151700
TAFFTY
TAF
KFTY 151739Z 1518/1618 32015G27KT P6SM BKN015 BKN025
     FM152000 32018G30KT P6SM SCT030
     FM160200 34010G17KT P6SM SKC
     FM160700 01005KT P6SM SKC
     FM161100 08010KT P6SM SKC
     FM161500 10012G20KT P6SM SCT250=



000
FTUS42 KFFC 151700
TAFRYY
TAF
KRYY 151739Z 1518/1618 32016G28KT P6SM BKN015 BKN025
     FM152000 32018G30KT P6SM SCT030
     FM160200 34010G17KT P6SM SKC
     FM160700 01005KT P6SM SKC
     FM161100 08010KT P6SM SKC
     FM161500 10012G20KT P6SM SCT250=



000
FTUS42 KFFC 151700
TAFCSG
TAF
KCSG 151739Z 1518/1618 34013G25KT P6SM SCT015 BKN025
     FM152000 32018G30KT P6SM SCT030
     FM160200 34010G17KT P6SM SKC
     FM160700 01005KT P6SM SKC
     FM161100 08010KT P6SM SKC
     FM161500 10012G20KT P6SM SCT250=



000
FTUS42 KFFC 151700
TAFAHN
TAF
KAHN 151739Z 1518/1618 30012G24KT P6SM BKN012 BKN025
     FM152000 32018G30KT P6SM SCT030
     FM160200 34010G17KT P6SM SKC
     FM160700 01005KT P6SM SKC
     FM161100 08010KT P6SM SKC
     FM161500 10012G20KT P6SM SCT250=



000
FTUS42 KFFC 151500 AAA
TAFPDK
TAF AMD
KPDK 151552Z 1516/1612 31015G24KT P6SM BKN015 OVC022
      TEMPO 1516/1517 6SM -RA BR BKN008
     FM151700 32018G28KT P6SM BKN022
     FM151900 32020G32KT P6SM SCT030
     FM160200 34011KT P6SM SKC
     FM160700 01005KT P6SM SKC
     FM161100 08006KT P6SM SKC=



000
FTUS42 KFFC 151500 AAD
TAFRYY
TAF AMD
KRYY 151551Z 1516/1612 32015G24KT P6SM BKN012 OVC020
      TEMPO 1516/1517 6SM -RA BR BKN008
     FM151700 32018G28KT P6SM BKN020
     FM151900 32020G32KT P6SM SCT030
     FM160200 34011KT P6SM SKC
     FM160700 01005KT P6SM SKC
     FM161100 08006KT P6SM SKC=



000
FTUS42 KFFC 151500 AAD
TAFFTY
TAF AMD
KFTY 151550Z 1516/1612 32015G24KT P6SM BKN012 OVC020
      TEMPO 1516/1517 6SM -RA BR BKN008
     FM151700 32018G28KT P6SM BKN020
     FM151900 32020G32KT P6SM SCT030
     FM160200 34011KT P6SM SKC
     FM160700 01005KT P6SM SKC
     FM161100 08006KT P6SM SKC=



000
FTUS42 KFFC 151500 AAC
TAFATL
TAF AMD
KATL 151549Z 1516/1618 32018G28KT P6SM BKN012 OVC020
      TEMPO 1516/1517 6SM -RA BR BKN008
     FM151700 32022G33KT P6SM BKN020
     FM151900 32023G35KT P6SM SCT030
     FM160200 34015G24KT P6SM SKC
     FM160700 01008KT P6SM SKC
     FM161100 08007KT P6SM SKC
     FM161500 10012G20KT P6SM SCT250=



000
FTUS42 KFFC 151500 AAB
TAFAHN
TAF AMD
KAHN 151514Z 1515/1612 23007KT P6SM SCT010 BKN015
     FM151700 27012G20KT P6SM VCSH OVC020
     FM151900 29018G30KT P6SM BKN035
     FM152100 30020G30KT P6SM SCT150
     FM160400 33009KT P6SM SKC
     FM160900 03005KT P6SM SKC=



000
FTUS42 KFFC 151500 AAB
TAFMCN
TAF AMD
KMCN 151507Z 1515/1612 20005KT 5SM -SHRA SCT010 OVC040
      TEMPO 1515/1517 1SM BR BKN010
     FM151700 30015G25KT P6SM OVC025
     FM152100 31020G30KT P6SM SCT250
     FM160300 31010KT P6SM SKC
     FM160900 35008KT P6SM SKC=



000
FTUS42 KFFC 151500 AAA
TAFCSG
TAF AMD
KCSG 151506Z 1515/1612 34015G25KT 6SM -SHRA BR SCT010 BKN025
      TEMPO 1515/1517 4SM BR BKN010
     FM151800 32018G30KT P6SM SCT030
     FM152200 33020G30KT P6SM SCT250
     FM160300 34010KT P6SM SKC
     FM160900 02006KT P6SM SKC=



000
FTUS42 KFFC 151400 AAC
TAFFTY
TAF AMD
KFTY 151436Z 1515/1612 31015G25KT 6SM -SHRA SCT010 OVC025
      TEMPO 1515/1516 3SM BR BKN015
     FM151600 32017G27KT P6SM BKN020
     FM151800 32020G30KT P6SM SCT250
     FM160300 34009KT P6SM SKC
     FM161100 04005KT P6SM SKC=



000
FTUS42 KFFC 151400 AAC
TAFRYY
TAF AMD
KRYY 151432Z 1515/1612 32015G25KT 6SM BR BKN010 OVC030
      TEMPO 1515/1516 3SM -SHRA BR BKN005
     FM151600 32017G27KT P6SM BKN014
     FM151800 32020G30KT P6SM SCT250
     FM160300 34010KT P6SM SKC
     FM161100 04005KT P6SM SKC=



000
FTUS42 KFFC 151400 AAA
TAFAHN
TAF AMD
KAHN 151413Z 1514/1612 23007KT P6SM SCT010 BKN015
     FM151500 27012G20KT P6SM VCSH OVC020
     FM151900 29018G30KT P6SM BKN035
     FM152100 30020G30KT P6SM SCT150
     FM160400 33009KT P6SM SKC
     FM160900 03005KT P6SM SKC=



000
FTUS42 KFFC 151400 AAA
TAFMCN
TAF AMD
KMCN 151408Z 1514/1612 20005KT 6SM -SHRA SCT010 OVC080
      TEMPO 1514/1516 4SM BR BKN010
     FM151700 30015G25KT P6SM OVC025
     FM152100 31020G30KT P6SM SCT250
     FM160300 31010KT P6SM SKC
     FM160900 35008KT P6SM SKC=



000
FTUS42 KFFC 151400 AAB
TAFATL
TAF AMD
KATL 151406Z 1514/1618 32015G25KT 6SM -SHRA BKN010 OVC020
      TEMPO 1514/1515 4SM BR BKN007
     FM151700 32020G32KT P6SM BKN035
     FM152000 32020G35KT P6SM SCT040
     FM160300 34015G25KT P6SM SKC
     FM160700 35008KT P6SM SKC
     FM161100 04007KT P6SM SKC=



000
FTUS42 KFFC 151300 AAB
TAFFTY
TAF AMD
KFTY 151326Z 1513/1612 31015G25KT 6SM -SHRA SCT010 OVC025
      TEMPO 1513/1515 3SM BR BKN012
     FM151600 32017G27KT P6SM BKN014
     FM151800 32020G30KT P6SM SCT250
     FM160300 34009KT P6SM SKC
     FM161100 04005KT P6SM SKC=



000
FTUS42 KFFC 151300 AAB
TAFRYY
TAF AMD
KRYY 151307Z 1513/1612 29015G25KT 6SM BR VCSH BKN010 OVC030
      TEMPO 1513/1515 3SM -SHRA BR BKN006
     FM151600 32017G27KT P6SM BKN014
     FM151800 32020G30KT P6SM SCT250
     FM160300 34010KT P6SM SKC
     FM161100 04005KT P6SM SKC=



000
FTUS42 KFFC 151300 AAA
TAFFTY
TAF AMD
KFTY 151303Z 1513/1612 31015G25KT 6SM -SHRA SCT007 OVC010
      TEMPO 1513/1515 3SM BR BKN007
     FM151600 32017G27KT P6SM BKN014
     FM151800 32020G30KT P6SM SCT250
     FM160300 34009KT P6SM SKC
     FM161100 04005KT P6SM SKC=



000
FTUS42 KFFC 151300 AAA
TAFATL
TAF AMD
KATL 151301Z 1513/1618 30015G25KT 5SM -SHRA OVC010
      TEMPO 1513/1515 1SM BR BKN004
     FM151600 32020G32KT P6SM BKN035
     FM151900 32020G35KT P6SM SCT150
     FM160300 34015G25KT P6SM SKC
     FM160700 35008KT P6SM SKC
     FM161100 04007KT P6SM SKC=



000
FTUS42 KFFC 151100 AAA
TAFRYY
TAF AMD
KRYY 151158Z 1512/1612 25007KT P6SM VCSH BKN007 OVC030
     FM151400 31015G25KT 6SM -SHRA OVC010
     FM151600 32017G27KT P6SM BKN014
     FM151800 32020G30KT P6SM SCT250
     FM160300 34010KT P6SM SKC
     FM161100 04005KT P6SM SKC=



000
FTUS42 KFFC 151100
TAFATL
TAF
KATL 151127Z 1512/1618 27010KT 6SM BR BKN006
     FM151400 30015G25KT 6SM -SHRA OVC010
     FM151600 32020G32KT P6SM BKN035
     FM151900 32020G35KT P6SM SCT150
     FM160300 34015G25KT P6SM SKC
     FM160700 35008KT P6SM SKC
     FM161100 04007KT P6SM SKC=



000
FTUS42 KFFC 151100
TAFFTY
TAF
KFTY 151127Z 1512/1612 29008KT 6SM BR OVC006
     FM151400 31012G22KT 6SM -SHRA OVC010
     FM151600 32017G27KT P6SM BKN014
     FM151800 32020G30KT P6SM SCT250
     FM160300 34009KT P6SM SKC
     FM161100 04005KT P6SM SKC=



000
FTUS42 KFFC 151100
TAFMCN
TAF
KMCN 151127Z 1512/1612 20005KT 6SM -SHRA BR SCT009 OVC080
     FM151400 28012KT 5SM SHRA OVC009
     FM151700 30015G25KT P6SM OVC025
     FM152100 31020G30KT P6SM SCT250
     FM160300 31010KT P6SM SKC
     FM160900 35008KT P6SM SKC=



000
FTUS42 KFFC 151100
TAFAHN
TAF
KAHN 151127Z 1512/1612 23007KT P6SM OVC006
     FM151400 27012G20KT P6SM VCSH OVC008
     FM151900 29018G30KT P6SM BKN035
     FM152100 30020G30KT P6SM SCT150
     FM160400 33009KT P6SM SKC
     FM160900 03005KT P6SM SKC=



000
FTUS42 KFFC 151100
TAFPDK
TAF
KPDK 151127Z 1512/1612 27010KT P6SM BKN005 OVC015
     FM151400 31015G25KT 6SM -SHRA OVC010
     FM151600 32017G27KT P6SM BKN014
     FM151800 32020G30KT P6SM SCT250
     FM160300 34010KT P6SM SKC
     FM161100 04005KT P6SM SKC=



000
FTUS42 KFFC 151100
TAFRYY
TAF
KRYY 151127Z 1512/1612 22007KT P6SM VCSH OVC025
     FM151400 31015G25KT 6SM -SHRA OVC010
     FM151600 32017G27KT P6SM BKN014
     FM151800 32020G30KT P6SM SCT250
     FM160300 34010KT P6SM SKC
     FM161100 04005KT P6SM SKC=



000
FTUS42 KFFC 151100
TAFCSG
TAF
KCSG 151127Z 1512/1612 27007KT P6SM VCSH BKN003
     FM151400 30014G24KT 6SM BR VCSH OVC008
     FM151600 33015G27KT P6SM OVC012
     FM151800 32018G30KT P6SM SCT030
     FM152200 33020G30KT P6SM SCT250
     FM160300 34010KT P6SM SKC
     FM160900 02006KT P6SM SKC=



000
FTUS42 KFFC 151000 AAA
TAFRYY
TAF AMD
KRYY 151050Z 1511/1606 22007KT P6SM OVC025
     FM151300 31012KT 6SM -SHRA OVC010
     FM151500 32017G27KT P6SM -SHRA BKN014
     FM151700 32018G30KT P6SM SCT030
     FM152200 32020G30KT P6SM SCT250
     FM160300 34009KT P6SM SKC
      AMD NOT SKED TIL 151200=



000
FTUS42 KFFC 151000 AAB
TAFCSG
TAF AMD
KCSG 151003Z 1510/1606 25007KT P6SM -SHRA SCT010 OVC090
     FM151100 25007KT 6SM SHRA BR OVC008
     FM151300 29014G24KT 6SM -SHRA OVC008
     FM151500 33012G20KT P6SM OVC012
     FM151800 32018G30KT P6SM SCT030
     FM152200 33020G30KT P6SM SCT250
     FM160300 34010KT P6SM SKC=



000
FTUS42 KFFC 151000 AAE
TAFPDK
TAF AMD
KPDK 151002Z 1510/1606 29008KT P6SM SCT008 BKN030
     FM151100 22008KT 6SM BR OVC006
     FM151200 31012KT 6SM -SHRA OVC010
     FM151500 32017G27KT P6SM BKN014
     FM151700 32018G30KT P6SM SCT030
     FM152200 32020G30KT P6SM SCT250
     FM160300 34010KT P6SM SKC=



000
FTUS42 KFFC 151000 AAB
TAFAHN
TAF AMD
KAHN 151002Z 1510/1606 24006KT 6SM -SHRA BR SCT006 BKN070
     FM151100 23007KT 5SM BR VCSH OVC004
     FM151400 23012G20KT P6SM VCSH OVC008
     FM151800 29018G30KT P6SM BKN035
     FM152000 30020G30KT P6SM SCT150
     FM160400 33009KT P6SM SKC=



000
FTUS42 KFFC 151000 AAB
TAFFTY
TAF AMD
KFTY 151002Z 1510/1606 26005KT P6SM SCT009 BKN030
     FM151100 26008KT 6SM BR OVC006
     FM151300 31012KT 6SM -SHRA OVC010
     FM151500 32017G27KT P6SM BKN014
     FM151700 32018G30KT P6SM SCT030
     FM152200 32020G30KT P6SM SCT250
     FM160300 34009KT P6SM SKC=



000
FTUS42 KFFC 150900 AAD
TAFATL
TAF AMD
KATL 150954Z 1510/1612 21008KT 6SM BR BKN005
     FM151300 30015G25KT 6SM -SHRA OVC010
     FM151600 32020G32KT P6SM BKN035
     FM152000 32020G35KT P6SM SCT250
     FM160300 34015G25KT P6SM SKC
     FM160700 35008KT P6SM SKC=



000
FTUS42 KFFC 150900 AAD
TAFPDK
TAF AMD
KPDK 150910Z 1509/1606 29008KT P6SM SCT008 BKN060
     FM151000 22008KT 6SM BR OVC006
     FM151200 31012KT 6SM -SHRA OVC010
     FM151500 32017G27KT P6SM BKN014
     FM151700 32018G30KT P6SM SCT030
     FM152200 32020G30KT P6SM SCT250
     FM160300 34010KT P6SM SKC=



000
FTUS42 KFFC 150900 AAC
TAFATL
TAF AMD
KATL 150910Z 1509/1612 19008KT P6SM SCT006 BKN060
     FM151000 21008KT 6SM BR OVC008
     FM151200 30015G25KT 6SM -SHRA OVC010
     FM151600 32020G32KT P6SM SCT030
     FM152200 32020G35KT P6SM SCT250
     FM160300 34015G25KT P6SM SKC
     FM160700 35008KT P6SM SKC=



000
FTUS42 KFFC 150700 AAA
TAFMCN
TAF AMD
KMCN 150757Z 1508/1606 22007KT P6SM -SHRA SCT020 BKN090
     FM150900 20005KT 5SM SHRA BR OVC009
     FM151400 28015G25KT 5SM SHRA OVC009
     FM151700 30015G25KT P6SM -SHRA OVC020
     FM152000 31020G30KT P6SM SCT250
     FM160300 31010KT P6SM SKC=



000
FTUS42 KFFC 150700 AAA
TAFAHN
TAF AMD
KAHN 150757Z 1508/1606 24006KT 6SM -SHRA BR SCT006 BKN070
     FM151000 23007KT 4SM -SHRA BR OVC004
     FM151400 23012G20KT P6SM -SHRA OVC008
     FM151800 29018G30KT P6SM BKN035
     FM152000 30020G30KT P6SM SCT150
     FM160400 33009KT P6SM SKC=



000
FTUS42 KFFC 150700 AAB
TAFATL
TAF AMD
KATL 150757Z 1508/1612 29008KT 6SM -SHRA BR SCT006 BKN060
     FM151000 23008KT 6SM BR OVC008
     FM151200 30015G25KT 6SM -SHRA OVC010
     FM151600 32020G32KT P6SM SCT030
     FM152200 32020G35KT P6SM SCT250
     FM160300 34015G25KT P6SM SKC
     FM160700 35008KT P6SM SKC=



000
FTUS42 KFFC 150700 AAA
TAFCSG
TAF AMD
KCSG 150757Z 1508/1606 25007KT 4SM SHRA BR SCT010 OVC015
     FM151000 25007KT 3SM SHRA BR OVC008
     FM151200 29014G24KT 6SM -SHRA OVC008
     FM151500 33012G20KT P6SM -SHRA OVC012
     FM151800 32018G30KT P6SM SCT030
     FM152200 33020G30KT P6SM SCT250
     FM160300 34010KT P6SM SKC=



000
FTUS42 KFFC 150700 AAC
TAFPDK
TAF AMD
KPDK 150757Z 1508/1606 29008KT 5SM -SHRA SCT008 BKN060
     FM150900 22008KT 6SM BR OVC006
     FM151200 31012KT 6SM -SHRA OVC010
     FM151500 32017G27KT P6SM BKN014
     FM151700 32018G30KT P6SM SCT030
     FM152200 32020G30KT P6SM SCT250
     FM160300 34010KT P6SM SKC=



000
FTUS42 KFFC 150700 AAA
TAFFTY
TAF AMD
KFTY 150757Z 1508/1606 26007KT 5SM -SHRA BR SCT009 BKN060
     FM151000 26008KT 6SM BR OVC006
     FM151200 31012KT 6SM -SHRA OVC010
     FM151500 32017G27KT P6SM BKN014
     FM151700 32018G30KT P6SM SCT030
     FM152200 32020G30KT P6SM SCT250
     FM160300 34009KT P6SM SKC=



000
FTUS42 KFFC 150600 AAB
TAFPDK
TAF AMD
KPDK 150658Z 1507/1606 29008KT P6SM -SHRA SCT008 BKN080
     FM150800 22008KT 6SM -SHRA BR OVC006
     FM151200 31012KT 6SM -SHRA OVC010
     FM151500 32017G27KT P6SM -SHRA BKN014
     FM151700 32018G30KT P6SM SCT030
     FM152200 32020G30KT P6SM SCT250
     FM160300 34010KT P6SM SKC=



000
FTUS42 KFFC 150500 AAA
TAFATL
TAF AMD
KATL 150556Z 1506/1612 23008KT P6SM -SHRA SCT015 BKN035
      TEMPO 1506/1507 27013G23KT 5SM SHRA BKN008 OVC015
     FM150700 24008KT 6SM -SHRA BR OVC006
     FM151100 30015G25KT 6SM -SHRA OVC010
     FM151600 32020G32KT P6SM SCT030
     FM152200 32020G35KT P6SM SCT250
     FM160300 34015G25KT P6SM SKC
     FM160700 35008KT P6SM SKC=



000
FTUS42 KFFC 150500 AAA
TAFPDK
TAF AMD
KPDK 150552Z 1506/1606 20010KT 5SM SHRA BR SCT008 BKN020
      TEMPO 1506/1507 27010G24KT
     FM150700 22008KT 6SM -SHRA BR OVC006
     FM151200 31012KT 6SM -SHRA OVC010
     FM151500 32017G27KT P6SM -SHRA BKN014
     FM151700 32018G30KT P6SM SCT030
     FM152200 32020G30KT P6SM SCT250
     FM160300 34010KT P6SM SKC=



000
FTUS42 KFFC 150500
TAFMCN
TAF
KMCN 150536Z 1506/1606 22007KT 6SM SHRA BR OVC020
     FM150900 18005KT 5SM SHRA BR OVC009
     FM151400 28015G25KT 5SM SHRA OVC009
     FM151700 30015G25KT P6SM -SHRA OVC020
     FM152000 31020G30KT P6SM SCT250
     FM160300 31010KT P6SM SKC=



000
FTUS42 KFFC 150500
TAFPDK
TAF
KPDK 150536Z 1506/1606 20010KT 3SM SHRA BR SCT008 BKN015
     FM150700 22008KT 6SM -SHRA BR OVC006
     FM151200 31012KT 6SM -SHRA OVC010
     FM151500 32017G27KT P6SM -SHRA BKN014
     FM151700 32018G30KT P6SM SCT030
     FM152200 32020G30KT P6SM SCT250
     FM160300 34010KT P6SM SKC=



000
FTUS42 KFFC 150500
TAFAHN
TAF
KAHN 150536Z 1506/1606 24006KT 4SM SHRA BR OVC006
     FM150900 20007KT 4SM SHRA BR OVC004
     FM151400 22012G20KT P6SM -SHRA OVC008
     FM151800 29018G30KT P6SM BKN035
     FM152000 30020G30KT P6SM SCT150
     FM160400 33009KT P6SM SKC=



000
FTUS42 KFFC 150500
TAFCSG
TAF
KCSG 150536Z 1506/1606 25007KT 4SM SHRA BR OVC006
     FM151200 29014G24KT 6SM -SHRA OVC008
     FM151500 33012G20KT P6SM -SHRA OVC012
     FM151800 32018G30KT P6SM SCT030
     FM152200 33020G30KT P6SM SCT250
     FM160300 34010KT P6SM SKC=



000
FTUS42 KFFC 150500
TAFRYY
TAF
KRYY 150536Z 1506/1606 20006KT 3SM SHRA BR BKN008 OVC015
     FM150700 22007KT 6SM -SHRA BR OVC006
     FM151200 31012KT 6SM -SHRA OVC010
     FM151500 32017G27KT P6SM -SHRA BKN014
     FM151700 32018G30KT P6SM SCT030
     FM152200 32020G30KT P6SM SCT250
     FM160300 34009KT P6SM SKC
      AMD NOT SKED TIL 151200=



000
FTUS42 KFFC 150500
TAFATL
TAF
KATL 150536Z 1506/1612 19008KT 6SM -SHRA SCT015 BKN025
      TEMPO 1506/1507 3SM SHRA BKN008 OVC015
     FM150700 22008KT 6SM -SHRA BR OVC006
     FM151100 30015G25KT 6SM -SHRA OVC010
     FM151600 32020G32KT P6SM SCT030
     FM152200 32020G35KT P6SM SCT250
     FM160300 34015G25KT P6SM SKC
     FM160700 35008KT P6SM SKC=



000
FTUS42 KFFC 150500
TAFFTY
TAF
KFTY 150536Z 1506/1606 26010G20KT 3SM SHRA BR BKN008 OVC015
     FM150700 22007KT 6SM -SHRA BR OVC006
     FM151200 31012KT 6SM -SHRA OVC010
     FM151500 32017G27KT P6SM -SHRA BKN014
     FM151700 32018G30KT P6SM SCT030
     FM152200 32020G30KT P6SM SCT250
     FM160300 34009KT P6SM SKC=



000
FTUS42 KFFC 150300 AAB
TAFATL
TAF AMD
KATL 150356Z 1504/1606 19008KT 6SM -SHRA BKN015
      TEMPO 1504/1507 4SM -TSRA BR BKN008 OVC015CB
     FM150700 22007KT 6SM SHRA BR OVC006
     FM151200 31015G25KT P6SM -SHRA OVC012
     FM151800 32020G32KT P6SM SCT030
     FM152200 32020G35KT P6SM SCT250
     FM160300 33015G25KT P6SM FEW250=



000
FTUS42 KFFC 150100 AAA
TAFAHN
TAF AMD
KAHN 150133Z 1502/1524 22005KT 4SM SHRA BR OVC006
     FM150700 22005KT 2SM SHRA BR OVC004
     FM151400 22012G20KT P6SM -SHRA OVC012
     FM151800 29018G30KT P6SM BKN025
     FM152000 30020G30KT P6SM SCT250=



000
FTUS42 KFFC 150100 AAA
TAFATL
TAF AMD
KATL 150133Z 1502/1606 19008KT 6SM -SHRA BKN015
      TEMPO 1504/1507 4SM -TSRA BR BKN008 OVC015CB
     FM150700 22007KT 6SM SHRA BR OVC006
     FM151200 31015G25KT P6SM -SHRA OVC012
     FM151800 32020G32KT P6SM SCT030
     FM152200 32020G35KT P6SM SCT250
     FM160300 33015G25KT P6SM FEW250=



000
FTUS42 KFFC 142300
TAFRYY
TAF
KRYY 142338Z 1500/1524 20007KT 6SM -SHRA SCT020 BKN045 OVC100
     FM150200 19006KT 6SM -SHRA BKN015
      TEMPO 1504/1507 4SM -TSRA BR BKN008 OVC015CB
     FM150700 22007KT 6SM SHRA BR OVC006
     FM151200 31012G20KT P6SM -SHRA OVC012
     FM151800 32018G30KT P6SM SCT030
     FM152200 32020G30KT P6SM SCT250
      AMD NOT SKED 1504/1512=



000
FTUS42 KFFC 142300
TAFFTY
TAF
KFTY 142338Z 1500/1524 20007KT 6SM -SHRA SCT020 BKN045 OVC100
     FM150200 19006KT 6SM -SHRA BKN015
      TEMPO 1504/1507 4SM -TSRA BR BKN008 OVC015CB
     FM150700 22007KT 6SM SHRA BR OVC006
     FM151200 31012G20KT P6SM -SHRA OVC012
     FM151800 32018G30KT P6SM SCT030
     FM152200 32020G30KT P6SM SCT250=



000
FTUS42 KFFC 142300
TAFATL
TAF
KATL 142338Z 1500/1606 20009KT 6SM -SHRA SCT020 BKN045 OVC100
     FM150200 19008KT 6SM -SHRA BKN015
      TEMPO 1504/1507 4SM -TSRA BR BKN008 OVC015CB
     FM150700 22007KT 6SM SHRA BR OVC006
     FM151200 31015G25KT P6SM -SHRA OVC012
     FM151800 32020G32KT P6SM SCT030
     FM152200 32020G35KT P6SM SCT250
     FM160300 33015G25KT P6SM FEW250=



000
FTUS42 KFFC 142300
TAFCSG
TAF
KCSG 142338Z 1500/1524 20007KT 6SM -SHRA SCT020 BKN045 OVC100
     FM150300 19006KT 6SM -SHRA BKN015
      TEMPO 1504/1507 4SM -TSRA BR BKN008 OVC015CB
     FM150700 22007KT 6SM SHRA BR OVC006 PROB30 1510/1515 5SM TSRA
      BR OVC015CB
     FM151500 31012G20KT P6SM -SHRA OVC012
     FM151800 32018G30KT P6SM SCT030
     FM152200 33020G30KT P6SM SCT250=



000
FTUS42 KFFC 142300
TAFAHN
TAF
KAHN 142338Z 1500/1524 20007KT 6SM -SHRA SCT020 BKN045 OVC100
     FM150200 19006KT 5SM -SHRA BKN015
     FM150600 22007KT 4SM SHRA BR OVC006
     FM151400 22012G20KT P6SM -SHRA OVC012
     FM151800 29018G30KT P6SM BKN025
     FM152000 30020G30KT P6SM SCT250=



000
FTUS42 KFFC 142300
TAFMCN
TAF
KMCN 142338Z 1500/1524 23005KT 5SM -SHRA BR SCT020 BKN045 OVC100
     FM150600 22007KT 4SM SHRA BR OVC012
     FM150900 18005KT 4SM SHRA BR OVC009 PROB30 1510/1515 5SM TSRA
      BR OVC015CB
     FM151700 30015G25KT P6SM -SHRA OVC012
     FM152000 30020G30KT P6SM SCT250=



000
FTUS42 KFFC 142300
TAFPDK
TAF
KPDK 142338Z 1500/1524 20007KT 6SM -SHRA SCT020 BKN045 OVC100
     FM150200 19006KT 6SM -SHRA BKN015
      TEMPO 1504/1507 4SM -TSRA BR BKN008 OVC015CB
     FM150700 22007KT 6SM SHRA BR OVC006
     FM151200 31012G20KT P6SM -SHRA OVC012
     FM151800 32018G30KT P6SM SCT030
     FM152200 32020G30KT P6SM SCT250=



000
FTUS42 KFFC 142100 AAC
TAFPDK
TAF AMD
KPDK 142152Z 1422/1518 22007KT 5SM -SHRA BR SCT015 BKN035
     FM150000 19006KT 6SM -SHRA BKN015
     FM150600 22010KT 6SM SHRA BR OVC006
     FM151200 29015G25KT P6SM -SHRA OVC005 PROB30 1514/1516 -SHRA
      OVC010
     FM151700 32018G30KT P6SM SCT030=



000
FTUS42 KFFC 142100 AAA
TAFRYY
TAF AMD
KRYY 142152Z 1422/1518 22008KT 6SM -SHRA SCT020 BKN045
     FM150000 19006KT 6SM -SHRA BKN015
     FM150600 22010KT 6SM SHRA BR OVC006
     FM151200 29015G25KT P6SM -SHRA OVC005 PROB30 1514/1516 -SHRA
      OVC010
     FM151700 32018G30KT P6SM SCT030=



000
FTUS42 KFFC 142100 AAA
TAFFTY
TAF AMD
KFTY 142151Z 1422/1518 22007KT 6SM -SHRA SCT020 BKN050
     FM150000 19006KT 6SM -SHRA BKN015
     FM150600 22010KT 6SM SHRA BR OVC006
     FM151200 29015G25KT P6SM -SHRA OVC005 PROB30 1514/1516 -SHRA
      OVC010
     FM151700 32018G30KT P6SM SCT030=



000
FTUS42 KFFC 142100 AAC
TAFATL
TAF AMD
KATL 142150Z 1422/1524 21009KT 6SM -SHRA SCT020 BKN045 OVC100
     FM150000 19006KT 6SM -SHRA BKN015
     FM150600 22010KT 6SM SHRA BR OVC006
     FM151200 29015G25KT P6SM -SHRA OVC005 PROB30 1514/1516 -SHRA
      OVC010
     FM151700 32018G30KT P6SM SCT030
     FM152100 32020G35KT P6SM SCT250=



000
FTUS42 KFFC 142100 AAB
TAFAHN
TAF AMD
KAHN 142133Z 1422/1518 22007KT 4SM -SHRA BR SCT020 BKN050
     FM150000 19006KT 6SM -SHRA BKN015
     FM150600 22010KT 6SM SHRA BR OVC006
     FM151200 29015G25KT P6SM -SHRA OVC005 PROB30 1514/1516 -SHRA
      OVC010
     FM151700 32018G30KT P6SM SCT030=



000
FTUS42 KFFC 142100 AAA
TAFMCN
TAF AMD
KMCN 142132Z 1422/1518 20010KT P6SM SCT025 BKN045
     FM150000 19006KT 6SM -SHRA BKN015
     FM150600 22010KT 6SM SHRA BR OVC006
     FM151200 29015G25KT P6SM -SHRA OVC005 PROB30 1514/1516 -SHRA
      OVC010
     FM151700 32018G30KT P6SM SCT030=



000
FTUS42 KFFC 142100 AAA
TAFCSG
TAF AMD
KCSG 142132Z 1422/1518 26007KT 6SM -RA BR SCT030 BKN045
     FM150000 19006KT 6SM -SHRA BKN015
     FM150600 22010KT 6SM SHRA BR OVC006
     FM151200 29015G25KT P6SM -SHRA OVC005 PROB30 1514/1516 -SHRA
      OVC010
     FM151700 32018G30KT P6SM SCT030=



000
FTUS42 KFFC 141900 AAB
TAFATL
TAF AMD
KATL 141948Z 1420/1524 26007KT 6SM -SHRA SCT015 BKN030
      TEMPO 1420/1422 4SM SHRA BKN020
     FM142200 19006KT 6SM -SHRA BKN015
     FM150600 22010KT 6SM SHRA BR OVC006
     FM151200 29015G25KT P6SM -SHRA OVC005 PROB30 1514/1516 -SHRA
      OVC010
     FM151700 32018G30KT P6SM SCT030
     FM152100 32020G35KT P6SM SCT250=



000
FTUS42 KFFC 141900 AAA
TAFAHN
TAF AMD
KAHN 141916Z 1419/1518 22007KT 6SM BR SCT020 BKN030
      TEMPO 1419/1422 2SM SHRA BKN020
     FM142200 19006KT 6SM -SHRA BKN015
     FM150600 22010KT 6SM SHRA BR OVC006
     FM151200 29015G25KT P6SM -SHRA OVC005 PROB30 1514/1516 -SHRA
      OVC010
     FM151700 32018G30KT P6SM SCT030=



000
FTUS42 KFFC 141800 AAB
TAFPDK
TAF AMD
KPDK 141837Z 1419/1518 26007KT 5SM -SHRA BR SCT015 BKN035
      TEMPO 1419/1421 3SM SHRA BR BKN010
     FM142100 19006KT 6SM -SHRA BKN015
     FM150600 22010KT 6SM SHRA BR OVC006
     FM151200 29015G25KT P6SM -SHRA OVC005 PROB30 1514/1516 -SHRA
      OVC010
     FM151700 32018G30KT P6SM SCT030=



000
FTUS42 KFFC 141800 AAA
TAFATL
TAF AMD
KATL 141831Z 1419/1524 22007KT 6SM -SHRA SCT025 BKN050
      TEMPO 1419/1421 4SM SHRA BKN020
     FM142100 19006KT 6SM -SHRA BKN015
     FM150600 22010KT 6SM SHRA BR OVC006
     FM151200 29015G25KT P6SM -SHRA OVC005 PROB30 1514/1516 -SHRA
      OVC010
     FM151700 32018G30KT P6SM SCT030
     FM152100 32020G35KT P6SM SCT250=



000
FTUS42 KFFC 141800 AAA
TAFPDK
TAF AMD
KPDK 141829Z 1418/1518 26007KT 5SM -SHRA BR SCT015 BKN040
      TEMPO 1418/1421 3SM SHRA BR BKN020
     FM142100 19006KT 6SM -SHRA BKN015
     FM150600 22010KT 6SM SHRA BR OVC006
     FM151200 29015G25KT P6SM -SHRA OVC005 PROB30 1514/1516 -SHRA
      OVC010
     FM151700 32018G30KT P6SM SCT030=



000
FTUS42 KFFC 141700
TAFCSG
TAF
KCSG 141739Z 1418/1518 26007KT P6SM SCT030 BKN045
      TEMPO 1418/1421 4SM SHRA BKN020
     FM142100 19006KT 6SM -SHRA BKN015
     FM150600 22010KT 6SM SHRA BR OVC006
     FM151200 29015G25KT P6SM -SHRA OVC005 PROB30 1514/1516 -SHRA
      OVC010
     FM151700 32018G30KT P6SM SCT030=



000
FTUS42 KFFC 141700
TAFMCN
TAF
KMCN 141739Z 1418/1518 20010KT P6SM SCT025 BKN045
      TEMPO 1419/1422 4SM SHRA BKN020
     FM142200 19006KT 6SM -SHRA BKN015
     FM150600 22010KT 6SM SHRA BR OVC006
     FM151200 29015G25KT P6SM -SHRA OVC005 PROB30 1514/1516 -SHRA
      OVC010
     FM151700 32018G30KT P6SM SCT030=



000
FTUS42 KFFC 141700
TAFATL
TAF
KATL 141739Z 1418/1524 22007KT 6SM -SHRA BKN025 BKN045
      TEMPO 1418/1421 4SM SHRA BKN015
     FM142100 19006KT 6SM -SHRA BKN015
     FM150600 22010KT 6SM SHRA BR OVC006
     FM151200 29015G25KT P6SM -SHRA OVC005 PROB30 1514/1516 -SHRA
      OVC010
     FM151700 32018G30KT P6SM SCT030
     FM152100 32020G35KT P6SM SCT250=



000
FTUS42 KFFC 141700
TAFAHN
TAF
KAHN 141739Z 1418/1518 22007KT P6SM SCT020 BKN030
      TEMPO 1419/1422 4SM SHRA BKN020
     FM142200 19006KT 6SM -SHRA BKN015
     FM150600 22010KT 6SM SHRA BR OVC006
     FM151200 29015G25KT P6SM -SHRA OVC005 PROB30 1514/1516 -SHRA
      OVC010
     FM151700 32018G30KT P6SM SCT030=



000
FTUS42 KFFC 141700
TAFPDK
TAF
KPDK 141739Z 1418/1518 26007KT 5SM -SHRA BR SCT015 BKN030
      TEMPO 1418/1421 1SM SHRA BR BKN020
     FM142100 19006KT 6SM -SHRA BKN015
     FM150600 22010KT 6SM SHRA BR OVC006
     FM151200 29015G25KT P6SM -SHRA OVC005 PROB30 1514/1516 -SHRA
      OVC010
     FM151700 32018G30KT P6SM SCT030=



000
FTUS42 KFFC 141700
TAFFTY
TAF
KFTY 141739Z 1418/1518 24005KT 6SM -SHRA SCT020 BKN050
      TEMPO 1418/1421 4SM SHRA BKN020
     FM142100 19006KT 6SM -SHRA BKN015
     FM150600 22010KT 6SM SHRA BR OVC006
     FM151200 29015G25KT P6SM -SHRA OVC005 PROB30 1514/1516 -SHRA
      OVC010
     FM151700 32018G30KT P6SM SCT030=



000
FTUS42 KFFC 141700
TAFRYY
TAF
KRYY 141739Z 1418/1518 27005KT 6SM -SHRA SCT020 BKN030
      TEMPO 1418/1421 3SM SHRA BKN020
     FM142100 19006KT 6SM -SHRA BKN015
     FM150600 22010KT 6SM SHRA BR OVC006
     FM151200 29015G25KT P6SM -SHRA OVC005 PROB30 1514/1516 -SHRA
      OVC010
     FM151700 32018G30KT P6SM SCT030=



000
FTUS42 KFFC 141600 AAA
TAFPDK
TAF AMD
KPDK 141631Z 1417/1512 15006KT P6SM FEW015 BKN035
      TEMPO 1417/1420 4SM SHRA BKN010CB
     FM142000 19007KT 6SM SHRA BR SCT010 BKN025CB
     FM150100 19008KT 6SM SHRA BR OVC015
     FM150600 22010KT 6SM SHRA BR OVC006=



000
FTUS42 KFFC 141500 AAB
TAFRYY
TAF AMD
KRYY 141558Z 1416/1512 16006KT P6SM VCSH SCT020 BKN035
     FM141700 19008G20KT 6SM -SHRA BKN015 OVC025
      TEMPO 1417/1420 4SM SHRA BKN010CB
     FM150100 19008KT 6SM SHRA BR OVC015
     FM150600 23010KT 6SM SHRA BR OVC006=



000
FTUS42 KFFC 141500 AAC
TAFATL
TAF AMD
KATL 141556Z 1416/1518 19010G17KT P6SM VCSH BKN020 BKN040
     FM141700 19008G20KT 6SM -SHRA BKN015 OVC025
      TEMPO 1417/1420 4SM SHRA BKN010CB
     FM150100 19009KT 6SM SHRA BR OVC015
     FM150600 22010KT 6SM SHRA BR OVC006
     FM151200 29015G25KT P6SM OVC005=



000
FTUS42 KFFC 141500 AAA
TAFMCN
TAF AMD
KMCN 141504Z 1415/1512 17008KT P6SM SCT040 BKN060
      TEMPO 1417/1419 18010G18KT 6SM -SHRA OVC015
     FM141900 19007KT 6SM -TSRA BR SCT010 BKN035CB
     FM150100 19006KT 6SM SHRA BR OVC025
     FM150600 20009KT 6SM SHRA BR OVC006=



000
FTUS42 KFFC 141500 AAA
TAFRYY
TAF AMD
KRYY 141503Z 1415/1512 16006KT P6SM BKN030
      TEMPO 1415/1417 6SM -SHRA BKN015
     FM141800 19007KT 6SM -SHRA BR SCT010 BKN025CB
     FM150100 19008KT 6SM SHRA BR OVC015
     FM150600 23010KT 6SM SHRA BR OVC006=



000
FTUS42 KFFC 141400 AAB
TAFAHN
TAF AMD
KAHN 141412Z 1414/1512 17005KT P6SM OVC015
      TEMPO 1416/1420 6SM -SHRA
     FM142000 19007KT 6SM -TSRA BR SCT010 BKN025CB
     FM150100 19006KT 6SM SHRA BR OVC008
     FM150600 23010KT 6SM SHRA BR OVC006=



000
FTUS42 KFFC 141300 AAB
TAFATL
TAF AMD
KATL 141357Z 1414/1518 16010KT P6SM SCT015 BKN045
      TEMPO 1414/1417 17011G17KT 6SM -SHRA OVC015
     FM141800 19008G20KT 6SM -TSRA BR SCT010 BKN025CB
     FM150100 19009KT 6SM SHRA BR OVC015
     FM150600 22010KT 6SM SHRA BR OVC006
     FM151200 29015G25KT P6SM OVC005=



    US Dept of Commerce
    National Oceanic and Atmospheric Administration
    National Weather Service
    1325 East West Highway
    Silver Spring, MD 20910
    Page Author: NWS Internet Services Team
Disclaimer
Information Quality
Credits
Glossary
Privacy Policy
Freedom of Information Act (FOIA)
About Us
Career Opportunities